createdAt,value
2023-04-09T00:00:20.182Z,382.00
2023-04-09T00:01:20.215Z,384.00
2023-04-09T00:02:20.304Z,383.00
2023-04-09T00:03:20.365Z,384.00
2023-04-09T00:04:20.391Z,383.00
2023-04-09T00:05:20.381Z,385.00
2023-04-09T00:06:20.435Z,384.00
2023-04-09T00:07:20.512Z,384.00
2023-04-09T00:08:20.516Z,384.00
2023-04-09T00:09:20.574Z,383.00
2023-04-09T00:10:20.626Z,385.00
2023-04-09T00:11:20.646Z,383.00
2023-04-09T00:12:20.688Z,386.00
2023-04-09T00:13:31.716Z,385.00
2023-04-09T00:14:21.751Z,385.00
2023-04-09T00:15:30.103Z,384.00
2023-04-09T00:16:21.774Z,387.00
2023-04-09T00:17:20.731Z,386.00
2023-04-09T00:18:20.706Z,383.00
2023-04-09T00:19:20.693Z,382.00
2023-04-09T00:20:20.672Z,381.00
2023-04-09T00:21:20.667Z,380.00
2023-04-09T00:22:20.670Z,382.00
2023-04-09T00:23:20.687Z,384.00
2023-04-09T00:24:20.667Z,385.00
2023-04-09T00:25:20.728Z,386.00
2023-04-09T00:26:20.761Z,387.00
2023-04-09T00:27:20.822Z,387.00
2023-04-09T00:28:20.874Z,385.00
2023-04-09T00:29:20.936Z,383.00
2023-04-09T00:30:20.963Z,380.00
2023-04-09T00:31:21.062Z,381.00
2023-04-09T00:32:21.041Z,381.00
2023-04-09T00:33:21.123Z,381.00
2023-04-09T00:34:21.141Z,384.00
2023-04-09T00:35:21.199Z,388.00
2023-04-09T00:36:21.240Z,393.00
2023-04-09T00:37:21.310Z,391.00
2023-04-09T00:38:21.343Z,388.00
2023-04-09T00:39:21.404Z,387.00
2023-04-09T00:40:21.429Z,386.00
2023-04-09T00:41:21.505Z,388.00
2023-04-09T00:42:21.570Z,387.00
2023-04-09T00:43:21.633Z,384.00
2023-04-09T00:44:21.704Z,386.00
2023-04-09T00:45:21.733Z,384.00
2023-04-09T00:46:21.795Z,384.00
2023-04-09T00:47:21.876Z,383.00
2023-04-09T00:48:21.894Z,383.00
2023-04-09T00:49:21.993Z,386.00
2023-04-09T00:50:21.995Z,387.00
2023-04-09T00:51:22.046Z,387.00
2023-04-09T00:52:22.116Z,386.00
2023-04-09T00:53:22.157Z,386.00
2023-04-09T00:54:22.199Z,385.00
2023-04-09T00:55:22.264Z,381.00
2023-04-09T00:56:22.309Z,379.00
2023-04-09T00:57:22.334Z,379.00
2023-04-09T00:58:22.380Z,382.00
2023-04-09T00:59:22.426Z,380.00
2023-04-09T01:00:22.468Z,384.00
2023-04-09T01:01:22.517Z,384.00
2023-04-09T01:02:22.725Z,386.00
2023-04-09T01:03:22.656Z,385.00
2023-04-09T01:04:22.615Z,385.00
2023-04-09T01:05:22.687Z,384.00
2023-04-09T01:06:22.724Z,383.00
2023-04-09T01:07:22.764Z,383.00
2023-04-09T01:08:22.811Z,386.00
2023-04-09T01:09:22.849Z,385.00
2023-04-09T01:10:22.846Z,385.00
2023-04-09T01:11:22.930Z,387.00
2023-04-09T01:12:22.981Z,384.00
2023-04-09T01:13:23.039Z,386.00
2023-04-09T01:14:23.094Z,388.00
2023-04-09T01:15:23.152Z,390.00
2023-04-09T01:16:23.308Z,390.00
2023-04-09T01:17:23.321Z,391.00
2023-04-09T01:18:23.287Z,392.00
2023-04-09T01:19:23.344Z,392.00
2023-04-09T01:20:23.376Z,393.00
2023-04-09T01:21:23.438Z,394.00
2023-04-09T01:22:23.437Z,394.00
2023-04-09T01:23:23.476Z,391.00
2023-04-09T01:24:23.604Z,391.00
2023-04-09T01:25:23.590Z,390.00
2023-04-09T01:26:23.618Z,389.00
2023-04-09T01:27:23.666Z,389.00
2023-04-09T01:28:23.704Z,387.00
2023-04-09T01:29:23.748Z,388.00
2023-04-09T01:30:23.828Z,388.00
2023-04-09T01:31:23.825Z,385.00
2023-04-09T01:32:23.905Z,382.00
2023-04-09T01:33:23.927Z,380.00
2023-04-09T01:34:23.959Z,379.00
2023-04-09T01:35:23.992Z,382.00
2023-04-09T01:36:24.027Z,383.00
2023-04-09T01:37:24.038Z,384.00
2023-04-09T01:38:24.114Z,384.00
2023-04-09T01:39:24.141Z,385.00
2023-04-09T01:40:24.187Z,388.00
2023-04-09T01:41:24.221Z,387.00
2023-04-09T01:42:24.260Z,384.00
2023-04-09T01:43:24.293Z,386.00
2023-04-09T01:44:24.324Z,385.00
2023-04-09T01:45:24.384Z,383.00
2023-04-09T01:46:24.456Z,379.00
2023-04-09T01:47:24.441Z,380.00
2023-04-09T01:48:24.464Z,380.00
2023-04-09T01:49:24.494Z,381.00
2023-04-09T01:50:24.513Z,383.00
2023-04-09T01:51:24.517Z,381.00
2023-04-09T01:52:24.528Z,384.00
2023-04-09T01:53:24.562Z,381.00
2023-04-09T01:54:24.617Z,379.00
2023-04-09T01:55:24.641Z,380.00
2023-04-09T01:56:24.680Z,381.00
2023-04-09T01:57:24.736Z,379.00
2023-04-09T01:58:24.775Z,382.00
2023-04-09T01:59:24.793Z,384.00
2023-04-09T02:00:24.772Z,386.00
2023-04-09T02:01:24.806Z,386.00
2023-04-09T02:02:24.953Z,391.00
2023-04-09T02:03:24.916Z,391.00
2023-04-09T02:04:24.857Z,391.00
2023-04-09T02:05:24.857Z,391.00
2023-04-09T02:06:24.890Z,392.00
2023-04-09T02:07:24.892Z,392.00
2023-04-09T02:08:24.922Z,393.00
2023-04-09T02:09:24.952Z,390.00
2023-04-09T02:10:24.986Z,388.00
2023-04-09T02:11:25.004Z,387.00
2023-04-09T02:12:25.008Z,387.00
2023-04-09T02:13:25.027Z,386.00
2023-04-09T02:14:25.033Z,385.00
2023-04-09T02:15:25.060Z,386.00
2023-04-09T02:16:25.066Z,385.00
2023-04-09T02:17:25.108Z,389.00
2023-04-09T02:18:25.100Z,391.00
2023-04-09T02:19:25.137Z,391.00
2023-04-09T02:20:25.150Z,389.00
2023-04-09T02:21:25.153Z,389.00
2023-04-09T02:22:25.188Z,388.00
2023-04-09T02:23:25.202Z,389.00
2023-04-09T02:24:25.218Z,391.00
2023-04-09T02:25:25.253Z,392.00
2023-04-09T02:26:25.246Z,393.00
2023-04-09T02:27:25.289Z,393.00
2023-04-09T02:28:25.294Z,392.00
2023-04-09T02:29:25.320Z,389.00
2023-04-09T02:30:25.353Z,389.00
2023-04-09T02:31:25.408Z,386.00
2023-04-09T02:32:25.397Z,388.00
2023-04-09T02:33:25.407Z,388.00
2023-04-09T02:34:25.422Z,388.00
2023-04-09T02:35:25.413Z,392.00
2023-04-09T02:36:25.404Z,391.00
2023-04-09T02:37:25.434Z,390.00
2023-04-09T02:38:25.443Z,386.00
2023-04-09T02:39:25.438Z,388.00
2023-04-09T02:40:25.469Z,390.00
2023-04-09T02:41:25.467Z,392.00
2023-04-09T02:42:25.491Z,389.00
2023-04-09T02:43:25.476Z,387.00
2023-04-09T02:44:25.489Z,386.00
2023-04-09T02:45:25.525Z,392.00
2023-04-09T02:46:25.613Z,391.00
2023-04-09T02:47:25.641Z,389.00
2023-04-09T02:48:25.579Z,388.00
2023-04-09T02:49:25.580Z,387.00
2023-04-09T02:50:26.275Z,387.00
2023-04-09T02:51:25.590Z,387.00
2023-04-09T02:52:25.631Z,387.00
2023-04-09T02:53:25.673Z,386.00
2023-04-09T02:54:25.727Z,385.00
2023-04-09T02:55:25.731Z,385.00
2023-04-09T02:56:25.753Z,386.00
2023-04-09T02:57:25.767Z,385.00
2023-04-09T02:58:25.786Z,385.00
2023-04-09T02:59:25.808Z,387.00
2023-04-09T03:00:25.826Z,384.00
2023-04-09T03:01:25.861Z,385.00
2023-04-09T03:02:26.032Z,387.00
2023-04-09T03:03:25.983Z,385.00
2023-04-09T03:04:26.048Z,388.00
2023-04-09T03:05:25.963Z,386.00
2023-04-09T03:06:25.986Z,387.00
2023-04-09T03:07:26.035Z,389.00
2023-04-09T03:08:26.056Z,390.00
2023-04-09T03:09:26.065Z,391.00
2023-04-09T03:10:26.110Z,392.00
2023-04-09T03:11:26.140Z,392.00
2023-04-09T03:12:26.198Z,390.00
2023-04-09T03:13:26.222Z,390.00
2023-04-09T03:14:26.290Z,388.00
2023-04-09T03:15:26.280Z,386.00
2023-04-09T03:16:26.569Z,388.00
2023-04-09T03:17:26.433Z,389.00
2023-04-09T03:18:26.399Z,386.00
2023-04-09T03:19:26.450Z,389.00
2023-04-09T03:20:26.467Z,389.00
2023-04-09T03:21:26.514Z,388.00
2023-04-09T03:22:26.533Z,389.00
2023-04-09T03:23:26.586Z,387.00
2023-04-09T03:24:26.626Z,387.00
2023-04-09T03:25:26.640Z,387.00
2023-04-09T03:26:26.666Z,390.00
2023-04-09T03:27:26.696Z,391.00
2023-04-09T03:28:26.720Z,390.00
2023-04-09T03:29:26.727Z,391.00
2023-04-09T03:30:26.757Z,390.00
2023-04-09T03:31:26.799Z,391.00
2023-04-09T03:32:26.880Z,392.00
2023-04-09T03:33:26.838Z,393.00
2023-04-09T03:34:26.861Z,390.00
2023-04-09T03:35:26.926Z,387.00
2023-04-09T03:36:26.912Z,387.00
2023-04-09T03:37:26.933Z,388.00
2023-04-09T03:38:26.968Z,388.00
2023-04-09T03:39:26.976Z,390.00
2023-04-09T03:40:27.009Z,387.00
2023-04-09T03:41:27.024Z,388.00
2023-04-09T03:42:27.053Z,386.00
2023-04-09T03:43:27.074Z,387.00
2023-04-09T03:44:27.121Z,386.00
2023-04-09T03:45:27.132Z,388.00
2023-04-09T03:46:27.187Z,390.00
2023-04-09T03:47:27.268Z,389.00
2023-04-09T03:48:27.261Z,385.00
2023-04-09T03:49:27.276Z,386.00
2023-04-09T03:50:27.293Z,385.00
2023-04-09T03:51:27.315Z,390.00
2023-04-09T03:52:27.337Z,390.00
2023-04-09T03:53:27.346Z,389.00
2023-04-09T03:54:27.393Z,387.00
2023-04-09T03:55:27.366Z,386.00
2023-04-09T03:56:27.370Z,387.00
2023-04-09T03:57:27.385Z,387.00
2023-04-09T03:58:27.379Z,387.00
2023-04-09T03:59:27.422Z,386.00
2023-04-09T04:00:27.434Z,385.00
2023-04-09T04:01:27.450Z,383.00
2023-04-09T04:02:27.634Z,383.00
2023-04-09T04:03:27.635Z,378.00
2023-04-09T04:04:27.624Z,380.00
2023-04-09T04:05:27.544Z,380.00
2023-04-09T04:06:27.543Z,382.00
2023-04-09T04:07:27.563Z,384.00
2023-04-09T04:08:27.574Z,390.00
2023-04-09T04:09:27.562Z,387.00
2023-04-09T04:10:27.614Z,387.00
2023-04-09T04:11:27.611Z,386.00
2023-04-09T04:12:27.618Z,384.00
2023-04-09T04:13:27.668Z,384.00
2023-04-09T04:14:27.651Z,385.00
2023-04-09T04:15:27.671Z,385.00
2023-04-09T04:16:27.737Z,388.00
2023-04-09T04:17:27.723Z,389.00
2023-04-09T04:18:27.700Z,389.00
2023-04-09T04:19:27.793Z,390.00
2023-04-09T04:20:27.761Z,391.00
2023-04-09T04:21:27.777Z,393.00
2023-04-09T04:22:27.765Z,393.00
2023-04-09T04:23:27.765Z,391.00
2023-04-09T04:24:27.806Z,390.00
2023-04-09T04:25:27.827Z,391.00
2023-04-09T04:26:27.822Z,391.00
2023-04-09T04:27:27.805Z,393.00
2023-04-09T04:28:27.799Z,393.00
2023-04-09T04:29:27.823Z,392.00
2023-04-09T04:30:27.806Z,392.00
2023-04-09T04:31:27.832Z,392.00
2023-04-09T04:32:27.842Z,395.00
2023-04-09T04:33:27.824Z,398.00
2023-04-09T04:34:27.836Z,396.00
2023-04-09T04:35:27.871Z,393.00
2023-04-09T04:36:27.878Z,393.00
2023-04-09T04:37:27.867Z,394.00
2023-04-09T04:38:27.894Z,396.00
2023-04-09T04:39:27.911Z,394.00
2023-04-09T04:40:27.918Z,398.00
2023-04-09T04:41:27.924Z,398.00
2023-04-09T04:42:27.917Z,398.00
2023-04-09T04:43:27.929Z,398.00
2023-04-09T04:44:27.928Z,397.00
2023-04-09T04:45:27.933Z,399.00
2023-04-09T04:46:27.918Z,397.00
2023-04-09T04:47:27.977Z,395.00
2023-04-09T04:48:27.949Z,393.00
2023-04-09T04:49:27.956Z,389.00
2023-04-09T04:50:27.983Z,386.00
2023-04-09T04:51:27.994Z,384.00
2023-04-09T04:52:28.024Z,384.00
2023-04-09T04:53:28.020Z,382.00
2023-04-09T04:54:28.032Z,384.00
2023-04-09T04:55:28.016Z,385.00
2023-04-09T04:56:28.027Z,386.00
2023-04-09T04:57:28.005Z,389.00
2023-04-09T04:58:28.014Z,389.00
2023-04-09T04:59:28.001Z,390.00
2023-04-09T05:00:28.012Z,389.00
2023-04-09T05:01:28.064Z,389.00
2023-04-09T05:02:28.088Z,390.00
2023-04-09T05:03:28.163Z,391.00
2023-04-09T05:04:28.054Z,390.00
2023-04-09T05:05:28.048Z,393.00
2023-04-09T05:06:28.076Z,395.00
2023-04-09T05:07:28.081Z,397.00
2023-04-09T05:08:28.096Z,397.00
2023-04-09T05:09:28.180Z,393.00
2023-04-09T05:10:28.065Z,393.00
2023-04-09T05:11:28.069Z,393.00
2023-04-09T05:12:28.094Z,392.00
2023-04-09T05:13:28.058Z,392.00
2023-04-09T05:14:28.050Z,393.00
2023-04-09T05:15:28.066Z,394.00
2023-04-09T05:16:28.102Z,392.00
2023-04-09T05:17:28.089Z,389.00
2023-04-09T05:18:28.056Z,389.00
2023-04-09T05:19:28.066Z,392.00
2023-04-09T05:20:28.044Z,390.00
2023-04-09T05:21:28.061Z,390.00
2023-04-09T05:22:28.048Z,392.00
2023-04-09T05:23:28.054Z,391.00
2023-04-09T05:24:28.050Z,390.00
2023-04-09T05:25:28.065Z,390.00
2023-04-09T05:26:28.056Z,391.00
2023-04-09T05:27:28.083Z,390.00
2023-04-09T05:28:28.089Z,389.00
2023-04-09T05:29:28.062Z,387.00
2023-04-09T05:30:28.203Z,390.00
2023-04-09T05:31:28.068Z,393.00
2023-04-09T05:32:28.073Z,391.00
2023-04-09T05:33:28.075Z,392.00
2023-04-09T05:34:28.066Z,390.00
2023-04-09T05:35:28.091Z,389.00
2023-04-09T05:36:28.081Z,387.00
2023-04-09T05:37:28.085Z,388.00
2023-04-09T05:38:28.098Z,388.00
2023-04-09T05:39:28.090Z,386.00
2023-04-09T05:40:28.098Z,391.00
2023-04-09T05:41:28.230Z,391.00
2023-04-09T05:42:28.097Z,392.00
2023-04-09T05:43:28.071Z,390.00
2023-04-09T05:44:28.068Z,389.00
2023-04-09T05:45:28.077Z,388.00
2023-04-09T05:46:28.074Z,390.00
2023-04-09T05:47:28.117Z,389.00
2023-04-09T05:48:28.072Z,388.00
2023-04-09T05:49:28.078Z,391.00
2023-04-09T05:50:28.072Z,390.00
2023-04-09T05:51:28.119Z,389.00
2023-04-09T05:52:28.137Z,389.00
2023-04-09T05:53:28.149Z,387.00
2023-04-09T05:54:28.169Z,387.00
2023-04-09T05:55:28.174Z,390.00
2023-04-09T05:56:28.219Z,390.00
2023-04-09T05:57:28.212Z,391.00
2023-04-09T05:58:28.230Z,390.00
2023-04-09T05:59:28.206Z,390.00
2023-04-09T06:00:28.230Z,392.00
2023-04-09T06:01:28.223Z,391.00
2023-04-09T06:02:28.333Z,393.00
2023-04-09T06:03:28.326Z,391.00
2023-04-09T06:04:28.275Z,389.00
2023-04-09T06:05:28.265Z,387.00
2023-04-09T06:06:28.273Z,388.00
2023-04-09T06:07:28.302Z,383.00
2023-04-09T06:08:28.266Z,385.00
2023-04-09T06:09:28.294Z,385.00
2023-04-09T06:10:28.274Z,382.00
2023-04-09T06:11:28.311Z,381.00
2023-04-09T06:12:28.321Z,383.00
2023-04-09T06:13:28.303Z,385.00
2023-04-09T06:14:28.323Z,386.00
2023-04-09T06:15:28.386Z,389.00
2023-04-09T06:16:28.343Z,387.00
2023-04-09T06:17:28.408Z,386.00
2023-04-09T06:18:28.385Z,387.00
2023-04-09T06:19:28.393Z,388.00
2023-04-09T06:20:28.402Z,392.00
2023-04-09T06:21:28.408Z,391.00
2023-04-09T06:22:28.433Z,393.00
2023-04-09T06:23:28.440Z,394.00
2023-04-09T06:24:28.480Z,394.00
2023-04-09T06:25:28.490Z,393.00
2023-04-09T06:26:28.490Z,395.00
2023-04-09T06:27:28.515Z,394.00
2023-04-09T06:28:28.506Z,393.00
2023-04-09T06:29:28.537Z,392.00
2023-04-09T06:30:28.575Z,391.00
2023-04-09T06:31:28.647Z,388.00
2023-04-09T06:32:28.660Z,387.00
2023-04-09T06:33:28.689Z,388.00
2023-04-09T06:34:28.669Z,389.00
2023-04-09T06:35:28.717Z,390.00
2023-04-09T06:36:28.729Z,389.00
2023-04-09T06:37:28.754Z,385.00
2023-04-09T06:38:28.790Z,383.00
2023-04-09T06:39:28.825Z,384.00
2023-04-09T06:40:28.851Z,384.00
2023-04-09T06:41:28.903Z,386.00
2023-04-09T06:42:28.940Z,386.00
2023-04-09T06:43:28.956Z,386.00
2023-04-09T06:44:29.006Z,387.00
2023-04-09T06:45:29.129Z,388.00
2023-04-09T06:46:29.105Z,391.00
2023-04-09T06:47:29.125Z,392.00
2023-04-09T06:48:29.139Z,390.00
2023-04-09T06:49:29.182Z,388.00
2023-04-09T06:50:29.231Z,390.00
2023-04-09T06:51:29.281Z,390.00
2023-04-09T06:52:29.337Z,389.00
2023-04-09T06:53:29.419Z,385.00
2023-04-09T06:54:29.431Z,388.00
2023-04-09T06:55:29.480Z,389.00
2023-04-09T06:56:29.502Z,389.00
2023-04-09T06:57:29.544Z,391.00
2023-04-09T06:58:29.579Z,391.00
2023-04-09T06:59:29.624Z,389.00
2023-04-09T07:00:29.651Z,387.00
2023-04-09T07:01:29.739Z,388.00
2023-04-09T07:02:29.904Z,388.00
2023-04-09T07:03:30.046Z,388.00
2023-04-09T07:04:29.979Z,389.00
2023-04-09T07:05:29.905Z,388.00
2023-04-09T07:06:29.954Z,387.00
2023-04-09T07:07:30.017Z,387.00
2023-04-09T07:08:30.089Z,385.00
2023-04-09T07:09:30.139Z,386.00
2023-04-09T07:10:30.180Z,386.00
2023-04-09T07:11:30.242Z,382.00
2023-04-09T07:12:30.294Z,383.00
2023-04-09T07:13:30.362Z,384.00
2023-04-09T07:14:30.414Z,383.00
2023-04-09T07:15:30.459Z,383.00
2023-04-09T07:16:30.573Z,380.00
2023-04-09T07:17:30.575Z,382.00
2023-04-09T07:18:30.607Z,383.00
2023-04-09T07:19:30.678Z,382.00
2023-04-09T07:20:30.776Z,380.00
2023-04-09T07:21:30.813Z,379.00
2023-04-09T07:22:30.929Z,382.00
2023-04-09T07:23:30.924Z,382.00
2023-04-09T07:24:30.988Z,381.00
2023-04-09T07:25:31.085Z,384.00
2023-04-09T07:26:31.109Z,385.00
2023-04-09T07:27:31.199Z,384.00
2023-04-09T07:28:31.255Z,387.00
2023-04-09T07:29:31.326Z,387.00
2023-04-09T07:30:31.391Z,387.00
2023-04-09T07:31:32.386Z,386.00
2023-04-09T07:32:31.640Z,384.00
2023-04-09T07:33:31.655Z,383.00
2023-04-09T07:34:31.738Z,382.00
2023-04-09T07:35:31.850Z,381.00
2023-04-09T07:36:31.910Z,383.00
2023-04-09T07:37:31.904Z,382.00
2023-04-09T07:38:31.981Z,380.00
2023-04-09T07:39:32.048Z,379.00
2023-04-09T07:40:32.116Z,379.00
2023-04-09T07:41:32.156Z,380.00
2023-04-09T07:42:32.232Z,381.00
2023-04-09T07:43:32.297Z,384.00
2023-04-09T07:44:32.352Z,385.00
2023-04-09T07:45:32.445Z,382.00
2023-04-09T07:46:32.482Z,385.00
2023-04-09T07:47:32.597Z,385.00
2023-04-09T07:48:32.632Z,388.00
2023-04-09T07:49:32.689Z,389.00
2023-04-09T07:50:32.746Z,389.00
2023-04-09T07:51:32.810Z,388.00
2023-04-09T07:52:32.857Z,389.00
2023-04-09T07:53:33.152Z,388.00
2023-04-09T07:54:32.992Z,387.00
2023-04-09T07:55:33.045Z,387.00
2023-04-09T07:56:33.126Z,387.00
2023-04-09T07:57:33.171Z,386.00
2023-04-09T07:58:33.262Z,386.00
2023-04-09T07:59:33.290Z,386.00
2023-04-09T08:00:33.357Z,387.00
2023-04-09T08:01:33.426Z,389.00
2023-04-09T08:02:33.546Z,388.00
2023-04-09T08:03:33.718Z,388.00
2023-04-09T08:04:33.654Z,387.00
2023-04-09T08:05:33.627Z,387.00
2023-04-09T08:06:33.686Z,388.00
2023-04-09T08:07:33.715Z,386.00
2023-04-09T08:08:33.767Z,387.00
2023-04-09T08:09:33.823Z,384.00
2023-04-09T08:10:33.866Z,382.00
2023-04-09T08:11:33.915Z,381.00
2023-04-09T08:12:33.977Z,382.00
2023-04-09T08:13:34.021Z,384.00
2023-04-09T08:14:34.083Z,384.00
2023-04-09T08:15:34.116Z,384.00
2023-04-09T08:16:34.262Z,385.00
2023-04-09T08:17:34.249Z,382.00
2023-04-09T08:18:34.242Z,383.00
2023-04-09T08:19:34.299Z,383.00
2023-04-09T08:20:34.354Z,381.00
2023-04-09T08:21:34.384Z,382.00
2023-04-09T08:22:34.424Z,382.00
2023-04-09T08:23:34.459Z,382.00
2023-04-09T08:24:34.519Z,381.00
2023-04-09T08:25:34.574Z,380.00
2023-04-09T08:26:34.595Z,377.00
2023-04-09T08:27:34.629Z,377.00
2023-04-09T08:28:34.682Z,376.00
2023-04-09T08:29:34.714Z,378.00
2023-04-09T08:30:34.745Z,380.00
2023-04-09T08:31:34.807Z,378.00
2023-04-09T08:32:34.848Z,375.00
2023-04-09T08:33:34.839Z,376.00
2023-04-09T08:34:34.894Z,373.00
2023-04-09T08:35:34.934Z,374.00
2023-04-09T08:36:35.030Z,374.00
2023-04-09T08:37:35.015Z,376.00
2023-04-09T08:38:35.054Z,376.00
2023-04-09T08:39:35.092Z,371.00
2023-04-09T08:40:35.109Z,374.00
2023-04-09T08:41:35.160Z,374.00
2023-04-09T08:42:35.181Z,377.00
2023-04-09T08:43:53.203Z,376.00
2023-04-09T08:44:36.224Z,378.00
2023-04-09T08:45:35.245Z,380.00
2023-04-09T08:46:35.212Z,381.00
2023-04-09T08:47:35.251Z,378.00
2023-04-09T08:48:35.305Z,379.00
2023-04-09T08:49:35.179Z,383.00
2023-04-09T08:50:35.188Z,383.00
2023-04-09T08:51:35.164Z,384.00
2023-04-09T08:52:35.175Z,385.00
2023-04-09T08:53:35.166Z,386.00
2023-04-09T08:54:35.180Z,385.00
2023-04-09T08:55:35.132Z,386.00
2023-04-09T08:56:35.133Z,383.00
2023-04-09T08:57:35.131Z,381.00
2023-04-09T08:58:35.160Z,383.00
2023-04-09T08:59:35.205Z,384.00
2023-04-09T09:00:35.204Z,383.00
2023-04-09T09:01:35.284Z,381.00
2023-04-09T09:02:35.377Z,381.00
2023-04-09T09:03:35.328Z,382.00
2023-04-09T09:04:35.315Z,384.00
2023-04-09T09:05:35.348Z,385.00
2023-04-09T09:06:35.377Z,386.00
2023-04-09T09:07:35.397Z,386.00
2023-04-09T09:08:35.419Z,386.00
2023-04-09T09:09:35.444Z,384.00
2023-04-09T09:10:35.470Z,382.00
2023-04-09T09:11:35.502Z,384.00
2023-04-09T09:12:35.575Z,384.00
2023-04-09T09:13:35.576Z,381.00
2023-04-09T09:14:35.603Z,380.00
2023-04-09T09:15:35.624Z,379.00
2023-04-09T09:16:35.713Z,378.00
2023-04-09T09:17:35.769Z,381.00
2023-04-09T09:18:35.720Z,382.00
2023-04-09T09:19:35.794Z,382.00
2023-04-09T09:20:35.804Z,383.00
2023-04-09T09:21:35.824Z,384.00
2023-04-09T09:22:35.860Z,383.00
2023-04-09T09:23:35.887Z,385.00
2023-04-09T09:24:35.922Z,389.00
2023-04-09T09:25:35.949Z,389.00
2023-04-09T09:26:35.982Z,388.00
2023-04-09T09:27:36.014Z,387.00
2023-04-09T09:28:36.059Z,386.00
2023-04-09T09:29:36.094Z,384.00
2023-04-09T09:30:36.118Z,384.00
2023-04-09T09:31:36.142Z,384.00
2023-04-09T09:32:36.216Z,385.00
2023-04-09T09:33:36.208Z,384.00
2023-04-09T09:34:36.236Z,385.00
2023-04-09T09:35:36.305Z,383.00
2023-04-09T09:36:36.305Z,382.00
2023-04-09T09:37:36.312Z,383.00
2023-04-09T09:38:36.339Z,382.00
2023-04-09T09:39:36.368Z,381.00
2023-04-09T09:40:36.393Z,380.00
2023-04-09T09:41:36.416Z,379.00
2023-04-09T09:42:36.448Z,379.00
2023-04-09T09:43:36.469Z,380.00
2023-04-09T09:44:36.505Z,379.00
2023-04-09T09:45:36.516Z,380.00
2023-04-09T09:46:36.583Z,380.00
2023-04-09T09:47:36.660Z,382.00
2023-04-09T09:48:36.572Z,383.00
2023-04-09T09:49:36.611Z,382.00
2023-04-09T09:50:36.617Z,385.00
2023-04-09T09:51:36.653Z,383.00
2023-04-09T09:52:36.676Z,387.00
2023-04-09T09:53:36.677Z,386.00
2023-04-09T09:54:36.722Z,385.00
2023-04-09T09:55:36.736Z,384.00
2023-04-09T09:56:36.759Z,382.00
2023-04-09T09:57:36.799Z,377.00
2023-04-09T09:58:36.806Z,377.00
2023-04-09T09:59:36.843Z,378.00
2023-04-09T10:00:36.847Z,381.00
2023-04-09T10:01:37.161Z,384.00
2023-04-09T10:02:36.994Z,385.00
2023-04-09T10:03:36.930Z,385.00
2023-04-09T10:04:37.014Z,382.00
2023-04-09T10:05:36.982Z,382.00
2023-04-09T10:06:36.987Z,384.00
2023-04-09T10:07:37.012Z,385.00
2023-04-09T10:08:37.024Z,384.00
2023-04-09T10:09:37.065Z,383.00
2023-04-09T10:10:37.068Z,384.00
2023-04-09T10:11:37.096Z,380.00
2023-04-09T10:12:37.133Z,381.00
2023-04-09T10:13:37.145Z,381.00
2023-04-09T10:14:37.150Z,380.00
2023-04-09T10:15:37.182Z,376.00
2023-04-09T10:16:37.203Z,376.00
2023-04-09T10:17:37.256Z,377.00
2023-04-09T10:18:37.260Z,377.00
2023-04-09T10:19:37.281Z,375.00
2023-04-09T10:20:37.307Z,377.00
2023-04-09T10:21:37.304Z,378.00
2023-04-09T10:22:37.319Z,379.00
2023-04-09T10:23:37.346Z,380.00
2023-04-09T10:24:37.362Z,380.00
2023-04-09T10:25:37.381Z,379.00
2023-04-09T10:26:37.397Z,378.00
2023-04-09T10:27:37.421Z,379.00
2023-04-09T10:28:37.480Z,378.00
2023-04-09T10:29:37.463Z,378.00
2023-04-09T10:30:37.525Z,375.00
2023-04-09T10:31:37.553Z,377.00
2023-04-09T10:32:37.575Z,379.00
2023-04-09T10:33:37.530Z,379.00
2023-04-09T10:35:56.769Z,403.00
2023-04-09T10:36:56.729Z,401.00
2023-04-09T10:37:56.738Z,399.00
2023-04-09T10:38:56.739Z,399.00
2023-04-09T10:39:56.733Z,400.00
2023-04-09T10:40:56.730Z,402.00
2023-04-09T10:41:56.700Z,403.00
2023-04-09T10:42:56.708Z,402.00
2023-04-09T10:43:56.688Z,400.00
2023-04-09T10:44:56.705Z,400.00
2023-04-09T10:45:56.671Z,398.00
2023-04-09T10:46:56.716Z,397.00
2023-04-09T10:47:56.704Z,397.00
2023-04-09T10:48:56.655Z,395.00
2023-04-09T10:49:56.670Z,394.00
2023-04-09T10:50:56.658Z,393.00
2023-04-09T10:51:56.652Z,390.00
2023-04-09T10:52:56.650Z,386.00
2023-04-09T10:53:56.642Z,387.00
2023-04-09T10:54:56.637Z,385.00
2023-04-09T10:55:56.635Z,383.00
2023-04-09T10:56:56.629Z,383.00
2023-04-09T10:57:56.606Z,384.00
2023-04-09T10:58:56.600Z,384.00
2023-04-09T10:59:56.592Z,384.00
2023-04-09T11:00:56.596Z,384.00
2023-04-09T11:01:56.620Z,384.00
2023-04-09T11:02:56.709Z,383.00
2023-04-09T11:03:56.615Z,384.00
2023-04-09T11:04:56.615Z,386.00
2023-04-09T11:05:56.564Z,385.00
2023-04-09T11:06:56.551Z,382.00
2023-04-09T11:07:56.526Z,381.00
2023-04-09T11:08:56.528Z,379.00
2023-04-09T11:09:56.552Z,379.00
2023-04-09T11:10:56.511Z,378.00
2023-04-09T11:11:56.503Z,377.00
2023-04-09T11:12:56.517Z,382.00
2023-04-09T11:13:56.513Z,382.00
2023-04-09T11:14:56.502Z,384.00
2023-04-09T11:15:56.499Z,387.00
2023-04-09T11:16:56.482Z,386.00
2023-04-09T11:17:56.514Z,387.00
2023-04-09T11:18:56.480Z,387.00
2023-04-09T11:19:56.455Z,387.00
2023-04-09T11:20:56.439Z,382.00
2023-04-09T11:21:56.443Z,382.00
2023-04-09T11:22:56.424Z,382.00
2023-04-09T11:23:56.417Z,382.00
2023-04-09T11:24:56.421Z,384.00
2023-04-09T11:25:56.429Z,385.00
2023-04-09T11:26:56.408Z,387.00
2023-04-09T11:27:56.387Z,385.00
2023-04-09T11:28:56.379Z,384.00
2023-04-09T11:29:56.409Z,383.00
2023-04-09T11:30:56.362Z,382.00
2023-04-09T11:31:56.446Z,383.00
2023-04-09T11:32:56.371Z,386.00
2023-04-09T11:33:56.361Z,388.00
2023-04-09T11:34:56.356Z,388.00
2023-04-09T11:35:56.378Z,387.00
2023-04-09T11:36:56.313Z,384.00
2023-04-09T11:37:56.335Z,383.00
2023-04-09T11:38:56.304Z,382.00
2023-04-09T11:39:57.990Z,383.00
2023-04-09T11:40:56.300Z,382.00
2023-04-09T11:41:56.305Z,381.00
2023-04-09T11:42:56.304Z,381.00
2023-04-09T11:43:56.283Z,379.00
2023-04-09T11:44:56.264Z,381.00
2023-04-09T11:45:57.625Z,383.00
2023-04-09T11:46:56.294Z,385.00
2023-04-09T11:47:56.343Z,382.00
2023-04-09T11:48:56.238Z,383.00
2023-04-09T11:49:56.244Z,385.00
2023-04-09T11:50:56.277Z,389.00
2023-04-09T11:51:56.227Z,389.00
2023-04-09T11:52:56.212Z,388.00
2023-04-09T11:53:56.219Z,388.00
2023-04-09T11:54:56.196Z,387.00
2023-04-09T11:55:56.203Z,386.00
2023-04-09T11:56:56.206Z,387.00
2023-04-09T11:57:56.188Z,390.00
2023-04-09T11:58:56.182Z,388.00
2023-04-09T11:59:56.166Z,389.00
2023-04-09T12:00:56.268Z,390.00
2023-04-09T12:01:56.190Z,391.00
2023-04-09T12:02:56.313Z,391.00
2023-04-09T12:03:56.337Z,391.00
2023-04-09T12:04:56.231Z,391.00
2023-04-09T12:05:56.137Z,390.00
2023-04-09T12:06:56.159Z,392.00
2023-04-09T12:07:56.748Z,393.00
2023-04-09T12:08:56.216Z,394.00
2023-04-09T12:09:56.211Z,392.00
2023-04-09T12:10:56.219Z,390.00
2023-04-09T12:11:56.256Z,388.00
2023-04-09T12:12:56.283Z,389.00
2023-04-09T12:13:56.265Z,390.00
2023-04-09T12:14:56.304Z,390.00
2023-04-09T12:15:58.718Z,390.00
2023-04-09T12:16:56.362Z,389.00
2023-04-09T12:17:56.341Z,393.00
2023-04-09T12:18:56.280Z,392.00
2023-04-09T12:19:56.282Z,391.00
2023-04-09T12:20:56.280Z,390.00
2023-04-09T12:21:56.269Z,389.00
2023-04-09T12:22:56.257Z,390.00
2023-04-09T12:23:56.259Z,391.00
2023-04-09T12:24:56.259Z,393.00
2023-04-09T12:25:56.245Z,391.00
2023-04-09T12:26:56.236Z,387.00
2023-04-09T12:27:56.222Z,387.00
2023-04-09T12:28:56.241Z,384.00
2023-04-09T12:29:56.213Z,386.00